Detall de PIREP

Printer-friendly versionPDF version

[2011/05/07 22:09:00]
Flight IATA:CT3111
Pilot Number:026
Company ICAO:CAT
Aircraft Type:DC85/A
PAX:132
Departing Airport: LEPA
Destination Airport: LEBL
Alternate Airport:LEGE
Online: VATSIM
Route:ESPOR W2 NEPAL
Flight Level:F120
No Slew and time accel
No pause
Crash detect
Detect pilot in Cockpit between each 30 and 45 minutes
22:09 Zero fuel Weight: 178724 Lbs, Fuel Weight: 17987 Lbs
22:09 VATSIM:LEPA 072200Z 00000KT 9000 VCTS FEW007 FEW020CB SCT023 19/18 Q1016 NOSIG
22:09 VATSIM:LEBL 072200Z 05008KT 4000 RA FEW012 SCT020 BKN040 17/16 Q1017 TEMPO TSRA BKN018CB
22:10 VOICE CATALONIAN / INTERHUB ROUTE CT3111
22:22 Parking Brakes off
22:31 Take-off
22:31 Take off Weight: 195458 Lbs
22:31 Wind: 208º @ 000 Knots Heading: 057º
22:31 POS N39º 33´ 05´´ E002º 45´ 12´´
22:31 Gear Up: 181 Knots
22:31 Flaps:1 at 181 Knots
22:31 Flaps:0 at 198 Knots
22:34 TOC
22:34 FuelWeight: 15279 Lb
22:45 TOD
22:45 Fuel Weight: 12957 Lb
22:46 Wind:317º@011 Knots Heading: 344º Ground Speed: 350 Knots Altitude 11509 ft
22:54 Flaps:1 at 224 Knots
22:58 Flaps:2 at 175 Knots
23:00 Gear Down: 186 Knots
23:00 Flaps:3 at 175 Knots
23:01 Wind:304º@010 Knots Heading: 065º Ground Speed: 158 Knots Altitude 606 ft
23:01 Flaps:4 at 148 Knots
23:01 Flaps:5 at 141 Knots
23:01 TouchDown:Rate -341 ft/min Speed: 129 Knots
23:02 VATSIM:LEBL 072230Z 28010KT 230V310 3000 VCTS RA SCT009 SCT018CB BKN024 14/13 Q1018 NOSIG
23:02 Land
23:02 Wind:326º@010 Knots
23:02 Heading: 043º
23:02 Flight Duration: 00:31
23:02 Landing Weight: 190504 Lbs
23:02 POS N41º 18´ 09´´ E002º 05´ 38´´
23:07 Parking brakes on
23:07 Block to Block Duration: 00:45
23:07 Final Fuel: 11316 Lbls
23:07 Spent Fuel: 6671 Lbls
23:07 Flight Length: 142 NM
23:07 TOD Land Length: 64 NM

Exportar CSV

Powered by Drupal - Modified by Danger4k